Аэропорт: Бегишево. Набережные Челны, Нижнекамск

ICAO: UWKE

METAR:
2021-10-23 02:00:00
UWKE 230200Z 25009MPS CAVOK 08/05 Q1003 R21/090070 NOSIG RMK QFE736/0982
METAR:
2021-10-22 22:45:00
TAF UWKE 222245Z 2300/2324 23006G12MPS 9999 BKN020 TEMPO 2300/2306 27007G14MPS 3100 -SHRA SCT005 SCT016CB TEMPO 2306/2312 25008G15MPS 6000 -SHRA SCT016CB BECMG 2316/2318 21003G10MPS